SWA2235 KSMF-KSAN
Flight info
| Callsign | SWA2235 |
|---|---|
| Flight time | 1h 11m |
| Altitude | 37000 |
| Route | FTHIL3 FRA EHF HUULK COMIX2 |
| Aircraft | B738/M-SADE2E3GIJ4RWZ/LB1D1 |
Departure
| Time | 2026-04-21 03:05 |
|---|---|
| Airport | Sacramento International Airport (KSMF) |
Arrival
| Time | 2026-04-21 04:16 |
|---|---|
| Airport | San Diego International Airport (KSAN) |
| Time | Latitude | Longitude | Altitude | Speed | Heading |
|---|---|---|---|---|---|
| 2026-04-21 02:47 | 38.69598 | -121.59537 | 34 ft | 0 kts | 107° |
| 2026-04-21 02:58 | 38.69603 | -121.59565 | 24 ft | 4 kts | 82° |
| 2026-04-21 02:58 | 38.69593 | -121.59593 | 34 ft | 4 kts | 30° |
| 2026-04-21 02:58 | 38.69577 | -121.59599 | 32 ft | 1 kts | 1° |
| 2026-04-21 02:58 | 38.69574 | -121.59599 | 34 ft | 0 kts | 1° |
| 2026-04-21 03:01 | 38.69579 | -121.59599 | 33 ft | 5 kts | 1° |
| 2026-04-21 03:01 | 38.69659 | -121.59599 | 34 ft | 13 kts | 353° |
| 2026-04-21 03:01 | 38.69702 | -121.59645 | 33 ft | 4 kts | 278° |
| 2026-04-21 03:01 | 38.69703 | -121.59768 | 33 ft | 17 kts | 271° |
| 2026-04-21 03:02 | 38.69773 | -121.59862 | 31 ft | 17 kts | 360° |
| 2026-04-21 03:02 | 38.69893 | -121.59862 | 33 ft | 18 kts | 0° |
| 2026-04-21 03:02 | 38.70028 | -121.59859 | 34 ft | 21 kts | 1° |
| 2026-04-21 03:02 | 38.70186 | -121.59857 | 33 ft | 23 kts | 1° |
| 2026-04-21 03:03 | 38.70345 | -121.59855 | 35 ft | 22 kts | 359° |
| 2026-04-21 03:03 | 38.70498 | -121.59851 | 35 ft | 22 kts | 2° |
| 2026-04-21 03:03 | 38.70644 | -121.59848 | 34 ft | 14 kts | 1° |
| 2026-04-21 03:03 | 38.70717 | -121.59904 | 34 ft | 14 kts | 279° |
| 2026-04-21 03:04 | 38.70720 | -121.60022 | 33 ft | 13 kts | 270° |
| 2026-04-21 03:04 | 38.70672 | -121.60107 | 34 ft | 13 kts | 194° |
| 2026-04-21 03:04 | 38.70518 | -121.60116 | 36 ft | 55 kts | 181° |
| 2026-04-21 03:04 | 38.69814 | -121.60124 | 34 ft | 144 kts | 181° |
| 2026-04-21 03:05 | 38.68644 | -121.60186 | 538 ft | 180 kts | 180° |
| 2026-04-21 03:05 | 38.67362 | -121.59982 | 1528 ft | 195 kts | 162° |
| 2026-04-21 03:05 | 38.66169 | -121.59049 | 2351 ft | 208 kts | 143° |
| 2026-04-21 03:05 | 38.65221 | -121.57546 | 2888 ft | 233 kts | 127° |
| 2026-04-21 03:06 | 38.64376 | -121.55718 | 3567 ft | 245 kts | 125° |
| 2026-04-21 03:06 | 38.63489 | -121.53753 | 4157 ft | 261 kts | 125° |
| 2026-04-21 03:06 | 38.62561 | -121.51728 | 5217 ft | 262 kts | 127° |
| 2026-04-21 03:06 | 38.61636 | -121.49753 | 6502 ft | 258 kts | 127° |
| 2026-04-21 03:07 | 38.60696 | -121.47796 | 7591 ft | 259 kts | 128° |
| 2026-04-21 03:07 | 38.59735 | -121.45832 | 8639 ft | 262 kts | 128° |
| 2026-04-21 03:07 | 38.58754 | -121.43854 | 9720 ft | 265 kts | 129° |
| 2026-04-21 03:07 | 38.57747 | -121.41848 | 10551 ft | 276 kts | 129° |
| 2026-04-21 03:08 | 38.56644 | -121.39682 | 10794 ft | 306 kts | 129° |
| 2026-04-21 03:08 | 38.55431 | -121.37314 | 11046 ft | 332 kts | 128° |
| 2026-04-21 03:08 | 38.54144 | -121.34796 | 11715 ft | 342 kts | 128° |
| 2026-04-21 03:08 | 38.52843 | -121.32240 | 12641 ft | 344 kts | 128° |
| 2026-04-21 03:09 | 38.51531 | -121.29668 | 13556 ft | 347 kts | 129° |
| 2026-04-21 03:09 | 38.50218 | -121.27103 | 14327 ft | 352 kts | 129° |
| 2026-04-21 03:09 | 38.48849 | -121.24438 | 15096 ft | 357 kts | 129° |
| 2026-04-21 03:09 | 38.47494 | -121.21805 | 15797 ft | 363 kts | 130° |
| 2026-04-21 03:10 | 38.46091 | -121.19086 | 16465 ft | 370 kts | 130° |
| 2026-04-21 03:10 | 38.44664 | -121.16325 | 17131 ft | 376 kts | 130° |
| 2026-04-21 03:10 | 38.43211 | -121.13514 | 17825 ft | 382 kts | 130° |
| 2026-04-21 03:10 | 38.41738 | -121.10667 | 18460 ft | 388 kts | 131° |
| 2026-04-21 03:11 | 38.40246 | -121.07781 | 18892 ft | 391 kts | 131° |
| 2026-04-21 03:11 | 38.38755 | -121.04898 | 18928 ft | 390 kts | 131° |
| 2026-04-21 03:11 | 38.37262 | -121.02012 | 18936 ft | 391 kts | 131° |
| 2026-04-21 03:11 | 38.35765 | -120.99120 | 18947 ft | 391 kts | 130° |
| 2026-04-21 03:12 | 38.34269 | -120.96223 | 18954 ft | 391 kts | 131° |
| 2026-04-21 03:12 | 38.32761 | -120.93325 | 19033 ft | 396 kts | 131° |
| 2026-04-21 03:12 | 38.31227 | -120.90390 | 19596 ft | 399 kts | 131° |
| 2026-04-21 03:12 | 38.29691 | -120.87444 | 20381 ft | 398 kts | 131° |
| 2026-04-21 03:13 | 38.28158 | -120.84503 | 21040 ft | 400 kts | 131° |
| 2026-04-21 03:13 | 38.26606 | -120.81533 | 21600 ft | 405 kts | 131° |
| 2026-04-21 03:13 | 38.25038 | -120.78534 | 22148 ft | 409 kts | 131° |
| 2026-04-21 03:13 | 38.23452 | -120.75502 | 22665 ft | 414 kts | 131° |
| 2026-04-21 03:14 | 38.21853 | -120.72446 | 23211 ft | 417 kts | 131° |
| 2026-04-21 03:14 | 38.20239 | -120.69362 | 23701 ft | 420 kts | 131° |
| 2026-04-21 03:14 | 38.18656 | -120.66210 | 24134 ft | 424 kts | 130° |
| 2026-04-21 03:14 | 38.17037 | -120.63128 | 24576 ft | 426 kts | 131° |
| 2026-04-21 03:15 | 38.15367 | -120.60002 | 25008 ft | 428 kts | 132° |
| 2026-04-21 03:15 | 38.13691 | -120.56858 | 25433 ft | 431 kts | 131° |
| 2026-04-21 03:15 | 38.12012 | -120.53689 | 25860 ft | 434 kts | 131° |
| 2026-04-21 03:15 | 38.10325 | -120.50490 | 26249 ft | 438 kts | 131° |
| 2026-04-21 03:16 | 38.08626 | -120.47263 | 26646 ft | 441 kts | 131° |
| 2026-04-21 03:16 | 38.06917 | -120.44019 | 27049 ft | 443 kts | 131° |
| 2026-04-21 03:16 | 38.05192 | -120.40765 | 27430 ft | 445 kts | 132° |
| 2026-04-21 03:16 | 38.03411 | -120.37533 | 27712 ft | 449 kts | 132° |
| 2026-04-21 03:17 | 38.01582 | -120.34292 | 27961 ft | 453 kts | 133° |
| 2026-04-21 03:17 | 37.99747 | -120.31030 | 28295 ft | 456 kts | 132° |
| 2026-04-21 03:17 | 37.97909 | -120.27733 | 28667 ft | 458 kts | 132° |
| 2026-04-21 03:17 | 37.96069 | -120.24428 | 29044 ft | 460 kts | 132° |
| 2026-04-21 03:18 | 37.94023 | -120.21368 | 29341 ft | 449 kts | 147° |
| 2026-04-21 03:18 | 37.91458 | -120.19209 | 29772 ft | 440 kts | 154° |
| 2026-04-21 03:18 | 37.88873 | -120.17255 | 30262 ft | 436 kts | 156° |
| 2026-04-21 03:18 | 37.86216 | -120.15350 | 30726 ft | 433 kts | 156° |
| 2026-04-21 03:19 | 37.83629 | -120.13465 | 31018 ft | 436 kts | 156° |
| 2026-04-21 03:19 | 37.81005 | -120.11536 | 31366 ft | 437 kts | 156° |
| 2026-04-21 03:19 | 37.78343 | -120.09564 | 31631 ft | 439 kts | 155° |
| 2026-04-21 03:19 | 37.75707 | -120.07605 | 31976 ft | 439 kts | 155° |
| 2026-04-21 03:20 | 37.73075 | -120.05651 | 32449 ft | 437 kts | 155° |
| 2026-04-21 03:20 | 37.70495 | -120.03733 | 32870 ft | 435 kts | 156° |
| 2026-04-21 03:20 | 37.67879 | -120.01794 | 33177 ft | 437 kts | 156° |
| 2026-04-21 03:20 | 37.65251 | -119.99844 | 33561 ft | 437 kts | 155° |
| 2026-04-21 03:21 | 37.62634 | -119.97900 | 34021 ft | 435 kts | 156° |
| 2026-04-21 03:21 | 37.60035 | -119.95971 | 34422 ft | 433 kts | 156° |
| 2026-04-21 03:21 | 37.57439 | -119.94048 | 34747 ft | 433 kts | 156° |
| 2026-04-21 03:21 | 37.54844 | -119.92130 | 35071 ft | 433 kts | 156° |
| 2026-04-21 03:22 | 37.52257 | -119.90207 | 35373 ft | 433 kts | 155° |
| 2026-04-21 03:22 | 37.49661 | -119.88281 | 35669 ft | 433 kts | 156° |
| 2026-04-21 03:22 | 37.47063 | -119.86371 | 36031 ft | 432 kts | 156° |
| 2026-04-21 03:22 | 37.44475 | -119.84469 | 36399 ft | 430 kts | 156° |
| 2026-04-21 03:23 | 37.41894 | -119.82573 | 36706 ft | 429 kts | 155° |
| 2026-04-21 03:23 | 37.39314 | -119.80680 | 36947 ft | 430 kts | 155° |
| 2026-04-21 03:23 | 37.34080 | -119.76843 | 36945 ft | 440 kts | 155° |
| 2026-04-21 03:24 | 37.28779 | -119.72948 | 36936 ft | 442 kts | 155° |
| 2026-04-21 03:24 | 37.23469 | -119.69051 | 36949 ft | 442 kts | 155° |
| 2026-04-21 03:25 | 37.18159 | -119.65165 | 36935 ft | 442 kts | 155° |
| 2026-04-21 03:25 | 37.12843 | -119.61284 | 36932 ft | 442 kts | 155° |
| 2026-04-21 03:26 | 37.07283 | -119.58383 | 36968 ft | 428 kts | 172° |
| 2026-04-21 03:26 | 37.01480 | -119.56668 | 36931 ft | 429 kts | 171° |
| 2026-04-21 03:27 | 36.95687 | -119.54888 | 36923 ft | 429 kts | 171° |
| 2026-04-21 03:27 | 36.90873 | -119.53389 | 36891 ft | 428 kts | 171° |
| 2026-04-21 03:28 | 36.85091 | -119.51581 | 36920 ft | 428 kts | 171° |
| 2026-04-21 03:28 | 36.78369 | -119.49482 | 36930 ft | 428 kts | 171° |
| 2026-04-21 03:29 | 36.73524 | -119.47972 | 36929 ft | 428 kts | 171° |
| 2026-04-21 03:29 | 36.67741 | -119.46174 | 36930 ft | 428 kts | 171° |
| 2026-04-21 03:30 | 36.61956 | -119.44378 | 36932 ft | 428 kts | 171° |
| 2026-04-21 03:30 | 36.56221 | -119.42600 | 36934 ft | 428 kts | 171° |
| 2026-04-21 03:31 | 36.50444 | -119.40812 | 36931 ft | 427 kts | 171° |
| 2026-04-21 03:31 | 36.44673 | -119.39028 | 36932 ft | 427 kts | 171° |
| 2026-04-21 03:32 | 36.38911 | -119.37250 | 36931 ft | 426 kts | 171° |
| 2026-04-21 03:32 | 36.33153 | -119.35476 | 36936 ft | 426 kts | 171° |
| 2026-04-21 03:33 | 36.27398 | -119.33706 | 36936 ft | 426 kts | 171° |
| 2026-04-21 03:33 | 36.21647 | -119.31940 | 36920 ft | 425 kts | 171° |
| 2026-04-21 03:34 | 36.15899 | -119.30177 | 36934 ft | 425 kts | 171° |
| 2026-04-21 03:34 | 36.10145 | -119.28415 | 36937 ft | 426 kts | 171° |
| 2026-04-21 03:35 | 36.04394 | -119.26657 | 36934 ft | 426 kts | 171° |
| 2026-04-21 03:35 | 35.98636 | -119.24899 | 36919 ft | 427 kts | 171° |
| 2026-04-21 03:36 | 35.92919 | -119.23155 | 36926 ft | 425 kts | 171° |
| 2026-04-21 03:36 | 35.87167 | -119.21405 | 36934 ft | 426 kts | 171° |
| 2026-04-21 03:37 | 35.81413 | -119.19656 | 36928 ft | 426 kts | 171° |
| 2026-04-21 03:37 | 35.75647 | -119.17907 | 36938 ft | 427 kts | 171° |
| 2026-04-21 03:38 | 35.69876 | -119.16157 | 36926 ft | 427 kts | 171° |
| 2026-04-21 03:38 | 35.64099 | -119.14409 | 36934 ft | 427 kts | 171° |
| 2026-04-21 03:39 | 35.58321 | -119.12663 | 36932 ft | 428 kts | 171° |
| 2026-04-21 03:39 | 35.52532 | -119.10916 | 36928 ft | 429 kts | 171° |
| 2026-04-21 03:40 | 35.46826 | -119.08876 | 36912 ft | 435 kts | 161° |
| 2026-04-21 03:40 | 35.41311 | -119.05769 | 36905 ft | 436 kts | 160° |
| 2026-04-21 03:41 | 35.35800 | -119.02639 | 36900 ft | 437 kts | 160° |
| 2026-04-21 03:41 | 35.30274 | -118.99539 | 36911 ft | 437 kts | 160° |
| 2026-04-21 03:42 | 35.24734 | -118.96454 | 36920 ft | 437 kts | 160° |
| 2026-04-21 03:42 | 35.19199 | -118.93381 | 36916 ft | 436 kts | 160° |
| 2026-04-21 03:43 | 35.13675 | -118.90320 | 36947 ft | 436 kts | 160° |
| 2026-04-21 03:43 | 35.08147 | -118.87260 | 36971 ft | 436 kts | 160° |
| 2026-04-21 03:44 | 35.02620 | -118.84205 | 36977 ft | 436 kts | 160° |
| 2026-04-21 03:44 | 34.97088 | -118.81151 | 36994 ft | 436 kts | 160° |
| 2026-04-21 03:45 | 34.91559 | -118.78103 | 36987 ft | 436 kts | 160° |
| 2026-04-21 03:45 | 34.86022 | -118.75055 | 37005 ft | 437 kts | 160° |
| 2026-04-21 03:46 | 34.80481 | -118.72011 | 36999 ft | 437 kts | 160° |
| 2026-04-21 03:46 | 34.74944 | -118.68973 | 37026 ft | 437 kts | 160° |
| 2026-04-21 03:47 | 34.69447 | -118.65961 | 37014 ft | 437 kts | 161° |
| 2026-04-21 03:47 | 34.63901 | -118.62925 | 37024 ft | 437 kts | 160° |
| 2026-04-21 03:48 | 34.58399 | -118.59847 | 37029 ft | 437 kts | 156° |
| 2026-04-21 03:48 | 34.53137 | -118.56117 | 37032 ft | 439 kts | 154° |
| 2026-04-21 03:49 | 34.47889 | -118.52331 | 37027 ft | 438 kts | 155° |
| 2026-04-21 03:49 | 34.42649 | -118.48579 | 37010 ft | 438 kts | 154° |
| 2026-04-21 03:50 | 34.37395 | -118.44839 | 37029 ft | 437 kts | 154° |
| 2026-04-21 03:50 | 34.32142 | -118.41115 | 37032 ft | 438 kts | 154° |
| 2026-04-21 03:51 | 34.26881 | -118.37383 | 37032 ft | 438 kts | 155° |
| 2026-04-21 03:51 | 34.21616 | -118.33657 | 37028 ft | 439 kts | 154° |
| 2026-04-21 03:52 | 34.16334 | -118.29923 | 37034 ft | 441 kts | 154° |
| 2026-04-21 03:52 | 34.11031 | -118.26182 | 37032 ft | 442 kts | 154° |
| 2026-04-21 03:53 | 34.05723 | -118.22440 | 37047 ft | 442 kts | 154° |
| 2026-04-21 03:53 | 34.00436 | -118.18717 | 36989 ft | 444 kts | 154° |
| 2026-04-21 03:54 | 33.97760 | -118.16837 | 36404 ft | 445 kts | 154° |
| 2026-04-21 03:54 | 33.95098 | -118.14965 | 35783 ft | 442 kts | 154° |
| 2026-04-21 03:54 | 33.92440 | -118.13099 | 35059 ft | 443 kts | 154° |
| 2026-04-21 03:54 | 33.89777 | -118.11230 | 34337 ft | 444 kts | 154° |
| 2026-04-21 03:55 | 33.87098 | -118.09353 | 33464 ft | 447 kts | 154° |
| 2026-04-21 03:55 | 33.84406 | -118.07469 | 32617 ft | 448 kts | 154° |
| 2026-04-21 03:55 | 33.81677 | -118.05615 | 31571 ft | 454 kts | 154° |
| 2026-04-21 03:55 | 33.78895 | -118.03778 | 30674 ft | 457 kts | 155° |
| 2026-04-21 03:56 | 33.76096 | -118.01945 | 29685 ft | 460 kts | 155° |
| 2026-04-21 03:56 | 33.73282 | -118.00100 | 28860 ft | 459 kts | 154° |
| 2026-04-21 03:56 | 33.70500 | -117.98269 | 28127 ft | 453 kts | 154° |
| 2026-04-21 03:56 | 33.67752 | -117.96455 | 27452 ft | 447 kts | 154° |
| 2026-04-21 03:57 | 33.65044 | -117.94666 | 26782 ft | 441 kts | 154° |
| 2026-04-21 03:57 | 33.62372 | -117.92902 | 26119 ft | 436 kts | 154° |
| 2026-04-21 03:57 | 33.59730 | -117.91159 | 25483 ft | 431 kts | 154° |
| 2026-04-21 03:57 | 33.57122 | -117.89441 | 24849 ft | 425 kts | 154° |
| 2026-04-21 03:58 | 33.54541 | -117.87741 | 24225 ft | 421 kts | 154° |
| 2026-04-21 03:58 | 33.52013 | -117.86036 | 23724 ft | 414 kts | 153° |
| 2026-04-21 03:58 | 33.49526 | -117.84331 | 23037 ft | 409 kts | 153° |
| 2026-04-21 03:58 | 33.47104 | -117.82672 | 22398 ft | 404 kts | 153° |
| 2026-04-21 03:59 | 33.44686 | -117.80993 | 21768 ft | 400 kts | 151° |
| 2026-04-21 03:59 | 33.42466 | -117.79003 | 21183 ft | 398 kts | 142° |
| 2026-04-21 03:59 | 33.40426 | -117.76789 | 20585 ft | 394 kts | 141° |
| 2026-04-21 04:00 | 33.36408 | -117.72414 | 19384 ft | 387 kts | 142° |
| 2026-04-21 04:00 | 33.34414 | -117.70268 | 18787 ft | 384 kts | 142° |
| 2026-04-21 04:00 | 33.32430 | -117.68143 | 18099 ft | 383 kts | 142° |
| 2026-04-21 04:00 | 33.30447 | -117.66028 | 17477 ft | 379 kts | 142° |
| 2026-04-21 04:01 | 33.28488 | -117.63939 | 16857 ft | 376 kts | 142° |
| 2026-04-21 04:01 | 33.26541 | -117.61866 | 16259 ft | 373 kts | 142° |
| 2026-04-21 04:01 | 33.24612 | -117.59814 | 15659 ft | 370 kts | 142° |
| 2026-04-21 04:01 | 33.22681 | -117.57777 | 15003 ft | 370 kts | 142° |
| 2026-04-21 04:02 | 33.20753 | -117.55750 | 14429 ft | 368 kts | 142° |
| 2026-04-21 04:02 | 33.18833 | -117.53732 | 13817 ft | 367 kts | 142° |
| 2026-04-21 04:02 | 33.16924 | -117.51724 | 13171 ft | 365 kts | 142° |
| 2026-04-21 04:02 | 33.15023 | -117.49727 | 12580 ft | 362 kts | 141° |
| 2026-04-21 04:03 | 33.13122 | -117.47787 | 11999 ft | 358 kts | 145° |
| 2026-04-21 04:03 | 33.11106 | -117.46067 | 11419 ft | 354 kts | 148° |
| 2026-04-21 04:03 | 33.09076 | -117.44433 | 10903 ft | 350 kts | 148° |
| 2026-04-21 04:03 | 33.07112 | -117.42834 | 10773 ft | 335 kts | 148° |
| 2026-04-21 04:04 | 33.05235 | -117.41285 | 10610 ft | 322 kts | 147° |
| 2026-04-21 04:04 | 33.03430 | -117.39779 | 10479 ft | 311 kts | 147° |
| 2026-04-21 04:04 | 33.01716 | -117.38340 | 10351 ft | 300 kts | 147° |
| 2026-04-21 04:04 | 33.00043 | -117.36935 | 10229 ft | 290 kts | 147° |
| 2026-04-21 04:05 | 32.98420 | -117.35573 | 10107 ft | 280 kts | 147° |
| 2026-04-21 04:05 | 32.96850 | -117.34256 | 9981 ft | 272 kts | 147° |
| 2026-04-21 04:05 | 32.95302 | -117.32960 | 9662 ft | 271 kts | 147° |
| 2026-04-21 04:05 | 32.93776 | -117.31683 | 9510 ft | 264 kts | 147° |
| 2026-04-21 04:06 | 32.92298 | -117.30445 | 9385 ft | 256 kts | 147° |
| 2026-04-21 04:06 | 32.90846 | -117.29234 | 9119 ft | 254 kts | 147° |
| 2026-04-21 04:06 | 32.89404 | -117.28035 | 8881 ft | 252 kts | 147° |
| 2026-04-21 04:06 | 32.87968 | -117.26842 | 8612 ft | 251 kts | 147° |
| 2026-04-21 04:07 | 32.86541 | -117.25656 | 8364 ft | 250 kts | 147° |
| 2026-04-21 04:07 | 32.85119 | -117.24475 | 8095 ft | 250 kts | 147° |
| 2026-04-21 04:07 | 32.83694 | -117.23292 | 7832 ft | 249 kts | 147° |
| 2026-04-21 04:07 | 32.82275 | -117.22114 | 7576 ft | 249 kts | 146° |
| 2026-04-21 04:08 | 32.81111 | -117.20597 | 7292 ft | 254 kts | 118° |
| 2026-04-21 04:08 | 32.80528 | -117.18616 | 7055 ft | 254 kts | 107° |
| 2026-04-21 04:08 | 32.80090 | -117.16577 | 6787 ft | 255 kts | 106° |
| 2026-04-21 04:08 | 32.79663 | -117.14532 | 6529 ft | 254 kts | 106° |
| 2026-04-21 04:09 | 32.79234 | -117.12530 | 6370 ft | 244 kts | 107° |
| 2026-04-21 04:09 | 32.78816 | -117.10621 | 6218 ft | 233 kts | 107° |
| 2026-04-21 04:09 | 32.78405 | -117.08768 | 6115 ft | 231 kts | 107° |
| 2026-04-21 04:09 | 32.77997 | -117.06944 | 6024 ft | 233 kts | 107° |
| 2026-04-21 04:10 | 32.77559 | -117.05067 | 5835 ft | 238 kts | 108° |
| 2026-04-21 04:10 | 32.77097 | -117.03174 | 5649 ft | 239 kts | 108° |
| 2026-04-21 04:10 | 32.76636 | -117.01288 | 5455 ft | 235 kts | 108° |
| 2026-04-21 04:10 | 32.76192 | -116.99463 | 5275 ft | 225 kts | 107° |
| 2026-04-21 04:11 | 32.75701 | -116.97721 | 5037 ft | 222 kts | 117° |
| 2026-04-21 04:11 | 32.74749 | -116.96320 | 4771 ft | 218 kts | 143° |
| 2026-04-21 04:11 | 32.73409 | -116.95531 | 4513 ft | 214 kts | 167° |
| 2026-04-21 04:11 | 32.71947 | -116.95450 | 4263 ft | 210 kts | 190° |
| 2026-04-21 04:12 | 32.70588 | -116.96041 | 4018 ft | 208 kts | 212° |
| 2026-04-21 04:12 | 32.69533 | -116.97187 | 3788 ft | 207 kts | 234° |
| 2026-04-21 04:12 | 32.68887 | -116.98713 | 3492 ft | 209 kts | 254° |
| 2026-04-21 04:12 | 32.68810 | -117.00426 | 3238 ft | 210 kts | 279° |
| 2026-04-21 04:13 | 32.69217 | -117.02069 | 2967 ft | 204 kts | 287° |
| 2026-04-21 04:13 | 32.69620 | -117.03656 | 2710 ft | 197 kts | 286° |
| 2026-04-21 04:13 | 32.69996 | -117.05171 | 2443 ft | 187 kts | 286° |
| 2026-04-21 04:13 | 32.70358 | -117.06643 | 2218 ft | 185 kts | 286° |
| 2026-04-21 04:14 | 32.70714 | -117.08097 | 1985 ft | 181 kts | 286° |
| 2026-04-21 04:14 | 32.71056 | -117.09497 | 1722 ft | 170 kts | 285° |
| 2026-04-21 04:14 | 32.71366 | -117.10768 | 1473 ft | 153 kts | 286° |
| 2026-04-21 04:14 | 32.71650 | -117.11931 | 1253 ft | 140 kts | 286° |
| 2026-04-21 04:15 | 32.71916 | -117.13017 | 995 ft | 135 kts | 286° |
| 2026-04-21 04:15 | 32.72188 | -117.14111 | 759 ft | 140 kts | 286° |
| 2026-04-21 04:15 | 32.72442 | -117.15211 | 572 ft | 140 kts | 284° |
| 2026-04-21 04:15 | 32.72713 | -117.16322 | 370 ft | 138 kts | 287° |
| 2026-04-21 04:16 | 32.72978 | -117.17402 | 157 ft | 135 kts | 285° |
| 2026-04-21 04:16 | 32.73230 | -117.18449 | 33 ft | 125 kts | 286° |
| 2026-04-21 04:16 | 32.73421 | -117.19232 | 22 ft | 53 kts | 286° |
| 2026-04-21 04:16 | 32.73462 | -117.19413 | 28 ft | 17 kts | 286° |
| 2026-04-21 04:17 | 32.73500 | -117.19565 | 29 ft | 20 kts | 285° |
| 2026-04-21 04:17 | 32.73525 | -117.19674 | 28 ft | 20 kts | 284° |
| 2026-04-21 04:17 | 32.73516 | -117.19807 | 28 ft | 11 kts | 248° |
| 2026-04-21 04:17 | 32.73497 | -117.19874 | 26 ft | 7 kts | 251° |
| 2026-04-21 04:18 | 32.73474 | -117.19934 | 30 ft | 8 kts | 233° |
| 2026-04-21 04:18 | 32.73440 | -117.19966 | 29 ft | 6 kts | 217° |
| 2026-04-21 04:18 | 32.73405 | -117.20008 | 26 ft | 9 kts | 240° |
| 2026-04-21 04:18 | 32.73393 | -117.20048 | 25 ft | 0 kts | 253° |